sensor_id;sensor_type;location;lat;lon;timestamp;temperature;humidity
1205;DHT22;592;48.764;9.174;2023-03-05T00:02:11;3.50;99.90
1205;DHT22;592;48.764;9.174;2023-03-05T00:04:39;3.50;99.90
1205;DHT22;592;48.764;9.174;2023-03-05T00:07:07;3.50;99.90
1205;DHT22;592;48.764;9.174;2023-03-05T00:09:36;3.50;99.90
1205;DHT22;592;48.764;9.174;2023-03-05T00:12:04;3.50;99.90
1205;DHT22;592;48.764;9.174;2023-03-05T00:14:30;3.60;99.90
1205;DHT22;592;48.764;9.174;2023-03-05T00:16:57;3.60;99.90
1205;DHT22;592;48.764;9.174;2023-03-05T00:19:24;3.60;99.90
1205;DHT22;592;48.764;9.174;2023-03-05T00:21:51;3.60;99.90
1205;DHT22;592;48.764;9.174;2023-03-05T00:24:19;3.60;99.90
1205;DHT22;592;48.764;9.174;2023-03-05T00:26:45;3.60;99.90
1205;DHT22;592;48.764;9.174;2023-03-05T00:29:14;3.60;99.90
1205;DHT22;592;48.764;9.174;2023-03-05T00:31:42;3.40;99.90
1205;DHT22;592;48.764;9.174;2023-03-05T00:34:12;3.30;99.90
1205;DHT22;592;48.764;9.174;2023-03-05T00:36:39;3.30;99.90
1205;DHT22;592;48.764;9.174;2023-03-05T00:39:06;3.30;99.90
1205;DHT22;592;48.764;9.174;2023-03-05T00:41:34;3.30;99.90
1205;DHT22;592;48.764;9.174;2023-03-05T00:44:01;3.30;99.90
1205;DHT22;592;48.764;9.174;2023-03-05T00:46:28;3.30;99.90
1205;DHT22;592;48.764;9.174;2023-03-05T00:48:55;3.30;99.90
1205;DHT22;592;48.764;9.174;2023-03-05T00:51:23;3.40;99.90
1205;DHT22;592;48.764;9.174;2023-03-05T00:53:50;3.50;99.90
1205;DHT22;592;48.764;9.174;2023-03-05T00:56:16;3.40;99.90
1205;DHT22;592;48.764;9.174;2023-03-05T00:58:44;3.30;99.90
1205;DHT22;592;48.764;9.174;2023-03-05T01:01:12;3.30;99.90
1205;DHT22;592;48.764;9.174;2023-03-05T01:03:38;3.40;99.90
1205;DHT22;592;48.764;9.174;2023-03-05T01:06:08;3.40;99.90
1205;DHT22;592;48.764;9.174;2023-03-05T01:08:35;3.50;99.90
1205;DHT22;592;48.764;9.174;2023-03-05T01:11:02;3.30;99.90
1205;DHT22;592;48.764;9.174;2023-03-05T01:13:29;3.30;99.90
1205;DHT22;592;48.764;9.174;2023-03-05T01:15:57;3.40;99.90
1205;DHT22;592;48.764;9.174;2023-03-05T01:18:25;3.50;99.90
1205;DHT22;592;48.764;9.174;2023-03-05T01:20:51;3.50;99.90
1205;DHT22;592;48.764;9.174;2023-03-05T01:23:18;3.40;99.90
1205;DHT22;592;48.764;9.174;2023-03-05T01:25:51;3.40;99.90
1205;DHT22;592;48.764;9.174;2023-03-05T01:28:18;3.40;99.90
1205;DHT22;592;48.764;9.174;2023-03-05T01:30:44;3.40;99.90
1205;DHT22;592;48.764;9.174;2023-03-05T01:33:12;3.30;99.90
1205;DHT22;592;48.764;9.174;2023-03-05T01:35:39;3.30;99.90
1205;DHT22;592;48.764;9.174;2023-03-05T01:38:06;3.30;99.90
1205;DHT22;592;48.764;9.174;2023-03-05T01:40:32;3.30;99.90
1205;DHT22;592;48.764;9.174;2023-03-05T01:43:07;3.30;99.90
1205;DHT22;592;48.764;9.174;2023-03-05T01:45:34;3.40;99.90
1205;DHT22;592;48.764;9.174;2023-03-05T01:48:00;3.50;99.90
1205;DHT22;592;48.764;9.174;2023-03-05T01:50:29;3.40;99.90
1205;DHT22;592;48.764;9.174;2023-03-05T01:52:58;3.30;99.90
1205;DHT22;592;48.764;9.174;2023-03-05T01:55:28;3.20;99.90
1205;DHT22;592;48.764;9.174;2023-03-05T01:57:58;3.10;99.90
1205;DHT22;592;48.764;9.174;2023-03-05T02:00:28;3.20;99.90
1205;DHT22;592;48.764;9.174;2023-03-05T02:02:56;3.30;99.90
1205;DHT22;592;48.764;9.174;2023-03-05T02:05:30;3.40;99.90
1205;DHT22;592;48.764;9.174;2023-03-05T02:07:59;3.50;99.90
1205;DHT22;592;48.764;9.174;2023-03-05T02:10:28;3.40;99.90
1205;DHT22;592;48.764;9.174;2023-03-05T02:12:58;3.40;99.90
1205;DHT22;592;48.764;9.174;2023-03-05T02:15:26;3.50;99.90
1205;DHT22;592;48.764;9.174;2023-03-05T02:17:53;3.50;99.90
1205;DHT22;592;48.764;9.174;2023-03-05T02:20:22;3.60;99.90
1205;DHT22;592;48.764;9.174;2023-03-05T02:22:50;3.50;99.90
1205;DHT22;592;48.764;9.174;2023-03-05T02:25:18;3.50;99.90
1205;DHT22;592;48.764;9.174;2023-03-05T02:27:50;3.50;99.90
1205;DHT22;592;48.764;9.174;2023-03-05T02:30:19;3.50;99.90
1205;DHT22;592;48.764;9.174;2023-03-05T02:32:46;3.60;99.90
1205;DHT22;592;48.764;9.174;2023-03-05T02:35:12;3.60;99.90
1205;DHT22;592;48.764;9.174;2023-03-05T02:37:39;3.40;99.90
1205;DHT22;592;48.764;9.174;2023-03-05T02:40:10;3.40;99.90
1205;DHT22;592;48.764;9.174;2023-03-05T02:42:37;3.50;99.90
1205;DHT22;592;48.764;9.174;2023-03-05T02:45:04;3.50;99.90
1205;DHT22;592;48.764;9.174;2023-03-05T02:47:31;3.60;99.90
1205;DHT22;592;48.764;9.174;2023-03-05T02:49:58;3.60;99.90
1205;DHT22;592;48.764;9.174;2023-03-05T02:52:26;3.60;99.90
1205;DHT22;592;48.764;9.174;2023-03-05T02:54:53;3.60;99.90
1205;DHT22;592;48.764;9.174;2023-03-05T02:57:21;3.70;99.90
1205;DHT22;592;48.764;9.174;2023-03-05T02:59:48;3.70;99.90
1205;DHT22;592;48.764;9.174;2023-03-05T03:02:14;3.70;99.90
1205;DHT22;592;48.764;9.174;2023-03-05T03:04:42;3.70;99.90
1205;DHT22;592;48.764;9.174;2023-03-05T03:07:09;3.80;99.90
1205;DHT22;592;48.764;9.174;2023-03-05T03:09:36;3.80;99.90
1205;DHT22;592;48.764;9.174;2023-03-05T03:12:04;3.80;99.90
1205;DHT22;592;48.764;9.174;2023-03-05T03:14:32;3.80;99.90
1205;DHT22;592;48.764;9.174;2023-03-05T03:17:03;3.80;99.90
1205;DHT22;592;48.764;9.174;2023-03-05T03:19:30;3.90;99.90
1205;DHT22;592;48.764;9.174;2023-03-05T03:21:57;3.90;99.90
1205;DHT22;592;48.764;9.174;2023-03-05T03:24:24;3.90;99.90
1205;DHT22;592;48.764;9.174;2023-03-05T03:26:50;3.90;99.90
1205;DHT22;592;48.764;9.174;2023-03-05T03:29:17;3.80;99.90
1205;DHT22;592;48.764;9.174;2023-03-05T03:31:45;3.80;99.90
1205;DHT22;592;48.764;9.174;2023-03-05T03:34:12;3.90;99.90
1205;DHT22;592;48.764;9.174;2023-03-05T03:36:40;3.90;99.90
1205;DHT22;592;48.764;9.174;2023-03-05T03:39:06;3.90;99.90
1205;DHT22;592;48.764;9.174;2023-03-05T03:41:35;3.90;99.90
1205;DHT22;592;48.764;9.174;2023-03-05T03:44:02;3.90;99.90
1205;DHT22;592;48.764;9.174;2023-03-05T03:46:31;3.90;99.90
1205;DHT22;592;48.764;9.174;2023-03-05T03:49:00;3.80;99.90
1205;DHT22;592;48.764;9.174;2023-03-05T03:51:26;3.80;99.90
1205;DHT22;592;48.764;9.174;2023-03-05T03:53:53;3.80;99.90
1205;DHT22;592;48.764;9.174;2023-03-05T03:56:20;3.80;99.90
1205;DHT22;592;48.764;9.174;2023-03-05T03:58:48;3.80;99.90
1205;DHT22;592;48.764;9.174;2023-03-05T04:01:15;3.80;99.90
1205;DHT22;592;48.764;9.174;2023-03-05T04:03:42;3.70;99.90
1205;DHT22;592;48.764;9.174;2023-03-05T04:06:12;3.80;99.90
1205;DHT22;592;48.764;9.174;2023-03-05T04:08:39;3.80;99.90
1205;DHT22;592;48.764;9.174;2023-03-05T04:11:06;3.70;99.90
1205;DHT22;592;48.764;9.174;2023-03-05T04:13:32;3.80;99.90
1205;DHT22;592;48.764;9.174;2023-03-05T04:15:59;3.80;99.90
1205;DHT22;592;48.764;9.174;2023-03-05T04:18:26;3.80;99.90
1205;DHT22;592;48.764;9.174;2023-03-05T04:20:53;3.80;99.90
1205;DHT22;592;48.764;9.174;2023-03-05T04:23:21;3.80;99.90
1205;DHT22;592;48.764;9.174;2023-03-05T04:25:47;3.70;99.90
1205;DHT22;592;48.764;9.174;2023-03-05T04:28:14;3.70;99.90
1205;DHT22;592;48.764;9.174;2023-03-05T04:30:42;3.70;99.90
1205;DHT22;592;48.764;9.174;2023-03-05T04:33:09;3.80;99.90
1205;DHT22;592;48.764;9.174;2023-03-05T04:35:36;3.80;99.90
1205;DHT22;592;48.764;9.174;2023-03-05T04:38:03;3.80;99.90
1205;DHT22;592;48.764;9.174;2023-03-05T04:40:31;3.80;99.90
1205;DHT22;592;48.764;9.174;2023-03-05T04:42:58;3.70;99.90
1205;DHT22;592;48.764;9.174;2023-03-05T04:45:24;3.80;99.90
1205;DHT22;592;48.764;9.174;2023-03-05T04:47:51;3.60;99.90
1205;DHT22;592;48.764;9.174;2023-03-05T04:50:18;3.70;99.90
1205;DHT22;592;48.764;9.174;2023-03-05T04:52:45;3.70;99.90
1205;DHT22;592;48.764;9.174;2023-03-05T04:55:14;3.70;99.90
1205;DHT22;592;48.764;9.174;2023-03-05T04:57:42;3.70;99.90
1205;DHT22;592;48.764;9.174;2023-03-05T05:00:13;3.80;99.90
1205;DHT22;592;48.764;9.174;2023-03-05T05:02:40;3.80;99.90
1205;DHT22;592;48.764;9.174;2023-03-05T05:05:08;3.80;99.90
1205;DHT22;592;48.764;9.174;2023-03-05T05:07:35;3.80;99.90
1205;DHT22;592;48.764;9.174;2023-03-05T05:10:03;3.70;99.90
1205;DHT22;592;48.764;9.174;2023-03-05T05:12:32;3.70;99.90
1205;DHT22;592;48.764;9.174;2023-03-05T05:15:00;3.70;99.90
1205;DHT22;592;48.764;9.174;2023-03-05T05:17:28;3.70;99.90
1205;DHT22;592;48.764;9.174;2023-03-05T05:19:57;3.80;99.90
1205;DHT22;592;48.764;9.174;2023-03-05T05:22:24;3.80;99.90
1205;DHT22;592;48.764;9.174;2023-03-05T05:24:52;3.80;99.90
1205;DHT22;592;48.764;9.174;2023-03-05T05:27:19;3.80;99.90
1205;DHT22;592;48.764;9.174;2023-03-05T05:29:46;3.80;99.90
1205;DHT22;592;48.764;9.174;2023-03-05T05:32:16;3.80;99.90
1205;DHT22;592;48.764;9.174;2023-03-05T05:34:42;3.80;99.90
1205;DHT22;592;48.764;9.174;2023-03-05T05:37:09;3.80;99.90
1205;DHT22;592;48.764;9.174;2023-03-05T05:39:37;3.80;99.90
1205;DHT22;592;48.764;9.174;2023-03-05T05:42:05;3.80;99.90
1205;DHT22;592;48.764;9.174;2023-03-05T05:44:32;3.80;99.90
1205;DHT22;592;48.764;9.174;2023-03-05T05:46:59;3.80;99.90
1205;DHT22;592;48.764;9.174;2023-03-05T05:49:27;3.90;99.90
1205;DHT22;592;48.764;9.174;2023-03-05T05:51:54;3.80;99.90
1205;DHT22;592;48.764;9.174;2023-03-05T05:54:22;3.80;99.90
1205;DHT22;592;48.764;9.174;2023-03-05T05:56:49;3.80;99.90
1205;DHT22;592;48.764;9.174;2023-03-05T05:59:16;3.80;99.90
1205;DHT22;592;48.764;9.174;2023-03-05T06:01:42;3.80;99.90
1205;DHT22;592;48.764;9.174;2023-03-05T06:04:09;3.80;99.90
1205;DHT22;592;48.764;9.174;2023-03-05T06:06:37;3.80;99.90
1205;DHT22;592;48.764;9.174;2023-03-05T06:09:04;3.80;99.90
1205;DHT22;592;48.764;9.174;2023-03-05T06:11:31;3.80;99.90
1205;DHT22;592;48.764;9.174;2023-03-05T06:13:59;3.80;99.90
1205;DHT22;592;48.764;9.174;2023-03-05T06:16:27;3.80;99.90
1205;DHT22;592;48.764;9.174;2023-03-05T06:18:54;3.70;99.90
1205;DHT22;592;48.764;9.174;2023-03-05T06:21:22;3.60;99.90
1205;DHT22;592;48.764;9.174;2023-03-05T06:23:50;3.70;99.90
1205;DHT22;592;48.764;9.174;2023-03-05T06:26:19;3.80;99.90
1205;DHT22;592;48.764;9.174;2023-03-05T06:28:46;3.70;99.90
1205;DHT22;592;48.764;9.174;2023-03-05T06:31:15;3.70;99.90
1205;DHT22;592;48.764;9.174;2023-03-05T06:33:42;3.80;99.90
1205;DHT22;592;48.764;9.174;2023-03-05T06:36:11;3.80;99.90
1205;DHT22;592;48.764;9.174;2023-03-05T06:38:39;3.80;99.90
1205;DHT22;592;48.764;9.174;2023-03-05T06:41:08;3.80;99.90
1205;DHT22;592;48.764;9.174;2023-03-05T06:43:36;3.90;99.90
1205;DHT22;592;48.764;9.174;2023-03-05T06:46:05;3.90;99.90
1205;DHT22;592;48.764;9.174;2023-03-05T06:48:32;3.90;99.90
1205;DHT22;592;48.764;9.174;2023-03-05T06:50:59;3.80;99.90
1205;DHT22;592;48.764;9.174;2023-03-05T06:53:26;3.70;99.90
1205;DHT22;592;48.764;9.174;2023-03-05T06:55:53;3.70;99.90
1205;DHT22;592;48.764;9.174;2023-03-05T06:58:21;3.80;99.90
1205;DHT22;592;48.764;9.174;2023-03-05T07:00:48;3.80;99.90
1205;DHT22;592;48.764;9.174;2023-03-05T07:03:15;3.90;99.90
1205;DHT22;592;48.764;9.174;2023-03-05T07:05:42;3.90;99.90
1205;DHT22;592;48.764;9.174;2023-03-05T07:08:09;3.80;99.90
1205;DHT22;592;48.764;9.174;2023-03-05T07:10:39;3.90;99.90
1205;DHT22;592;48.764;9.174;2023-03-05T07:13:07;3.80;99.90
1205;DHT22;592;48.764;9.174;2023-03-05T07:15:37;3.80;99.90
1205;DHT22;592;48.764;9.174;2023-03-05T07:18:04;3.80;99.90
1205;DHT22;592;48.764;9.174;2023-03-05T07:20:33;3.80;99.90
1205;DHT22;592;48.764;9.174;2023-03-05T07:23:00;3.90;99.90
1205;DHT22;592;48.764;9.174;2023-03-05T07:25:27;3.90;99.90
1205;DHT22;592;48.764;9.174;2023-03-05T07:27:53;3.90;99.90
1205;DHT22;592;48.764;9.174;2023-03-05T07:30:20;4.00;99.90
1205;DHT22;592;48.764;9.174;2023-03-05T07:32:48;4.00;99.90
1205;DHT22;592;48.764;9.174;2023-03-05T07:35:15;4.00;99.90
1205;DHT22;592;48.764;9.174;2023-03-05T07:37:42;4.10;99.90
1205;DHT22;592;48.764;9.174;2023-03-05T07:40:10;4.10;99.90
1205;DHT22;592;48.764;9.174;2023-03-05T07:42:37;4.10;99.90
1205;DHT22;592;48.764;9.174;2023-03-05T07:45:04;4.10;99.90
1205;DHT22;592;48.764;9.174;2023-03-05T07:47:32;4.10;99.90
1205;DHT22;592;48.764;9.174;2023-03-05T07:50:00;4.10;99.90
1205;DHT22;592;48.764;9.174;2023-03-05T07:52:27;4.00;99.90
1205;DHT22;592;48.764;9.174;2023-03-05T07:54:53;4.00;99.90
1205;DHT22;592;48.764;9.174;2023-03-05T07:57:20;4.10;99.90
1205;DHT22;592;48.764;9.174;2023-03-05T07:59:47;4.00;99.90
1205;DHT22;592;48.764;9.174;2023-03-05T08:02:14;4.00;99.90
1205;DHT22;592;48.764;9.174;2023-03-05T08:04:40;4.00;99.90
1205;DHT22;592;48.764;9.174;2023-03-05T08:07:09;4.10;99.90
1205;DHT22;592;48.764;9.174;2023-03-05T08:09:36;4.00;99.90
1205;DHT22;592;48.764;9.174;2023-03-05T08:12:03;3.90;99.90
1205;DHT22;592;48.764;9.174;2023-03-05T08:14:30;3.90;99.90
1205;DHT22;592;48.764;9.174;2023-03-05T08:16:58;3.90;99.90
1205;DHT22;592;48.764;9.174;2023-03-05T08:19:25;3.90;99.90
1205;DHT22;592;48.764;9.174;2023-03-05T08:21:52;4.10;99.90
1205;DHT22;592;48.764;9.174;2023-03-05T08:24:20;4.00;99.90
1205;DHT22;592;48.764;9.174;2023-03-05T08:26:54;4.00;99.90
1205;DHT22;592;48.764;9.174;2023-03-05T08:29:21;4.10;99.90
1205;DHT22;592;48.764;9.174;2023-03-05T08:31:48;4.10;99.90
1205;DHT22;592;48.764;9.174;2023-03-05T08:34:15;4.10;99.90
1205;DHT22;592;48.764;9.174;2023-03-05T08:36:42;4.10;99.90
1205;DHT22;592;48.764;9.174;2023-03-05T08:39:09;4.10;99.90
1205;DHT22;592;48.764;9.174;2023-03-05T08:41:38;4.20;99.90
1205;DHT22;592;48.764;9.174;2023-03-05T08:44:04;4.20;99.90
1205;DHT22;592;48.764;9.174;2023-03-05T08:46:32;4.20;99.90
1205;DHT22;592;48.764;9.174;2023-03-05T08:48:59;4.30;99.90
1205;DHT22;592;48.764;9.174;2023-03-05T08:51:28;4.30;99.90
1205;DHT22;592;48.764;9.174;2023-03-05T08:53:57;4.30;99.90
1205;DHT22;592;48.764;9.174;2023-03-05T08:56:24;4.30;99.90
1205;DHT22;592;48.764;9.174;2023-03-05T08:58:54;4.30;99.90
1205;DHT22;592;48.764;9.174;2023-03-05T09:01:44;4.40;99.90
1205;DHT22;592;48.764;9.174;2023-03-05T09:07:47;4.30;99.90
1205;DHT22;592;48.764;9.174;2023-03-05T09:10:17;4.40;99.90
1205;DHT22;592;48.764;9.174;2023-03-05T09:12:44;4.50;99.90
1205;DHT22;592;48.764;9.174;2023-03-05T09:15:31;4.40;99.90
1205;DHT22;592;48.764;9.174;2023-03-05T09:18:06;4.50;99.90
1205;DHT22;592;48.764;9.174;2023-03-05T09:20:34;4.40;99.90
1205;DHT22;592;48.764;9.174;2023-03-05T09:23:04;4.50;99.90
1205;DHT22;592;48.764;9.174;2023-03-05T09:25:33;4.50;99.90
1205;DHT22;592;48.764;9.174;2023-03-05T09:28:01;4.50;99.90
1205;DHT22;592;48.764;9.174;2023-03-05T09:30:40;4.50;99.90
1205;DHT22;592;48.764;9.174;2023-03-05T09:33:10;4.60;99.90
1205;DHT22;592;48.764;9.174;2023-03-05T09:35:39;4.60;99.90
1205;DHT22;592;48.764;9.174;2023-03-05T09:40:52;4.70;99.90
1205;DHT22;592;48.764;9.174;2023-03-05T09:50:39;4.50;99.90
1205;DHT22;592;48.764;9.174;2023-03-05T09:53:30;4.40;99.90
1205;DHT22;592;48.764;9.174;2023-03-05T09:56:38;4.50;99.90
1205;DHT22;592;48.764;9.174;2023-03-05T09:59:30;4.70;99.90
1205;DHT22;592;48.764;9.174;2023-03-05T10:21:29;4.80;99.90
1205;DHT22;592;48.764;9.174;2023-03-05T10:24:18;4.70;99.90
1205;DHT22;592;48.764;9.174;2023-03-05T10:26:57;4.80;99.90
1205;DHT22;592;48.764;9.174;2023-03-05T10:29:51;4.90;99.90
1205;DHT22;592;48.764;9.174;2023-03-05T10:32:31;4.90;99.90
1205;DHT22;592;48.764;9.174;2023-03-05T10:35:14;5.00;99.90
1205;DHT22;592;48.764;9.174;2023-03-05T10:37:59;5.20;99.90
1205;DHT22;592;48.764;9.174;2023-03-05T10:40:31;5.20;99.90
1205;DHT22;592;48.764;9.174;2023-03-05T10:43:06;5.20;99.90
1205;DHT22;592;48.764;9.174;2023-03-05T10:45:41;5.20;99.90
1205;DHT22;592;48.764;9.174;2023-03-05T10:48:14;4.90;99.90
1205;DHT22;592;48.764;9.174;2023-03-05T10:50:45;4.90;99.90
1205;DHT22;592;48.764;9.174;2023-03-05T10:53:18;4.90;99.90
1205;DHT22;592;48.764;9.174;2023-03-05T10:55:49;4.80;99.90
1205;DHT22;592;48.764;9.174;2023-03-05T10:58:21;4.90;99.90
1205;DHT22;592;48.764;9.174;2023-03-05T11:01:03;5.00;99.90
1205;DHT22;592;48.764;9.174;2023-03-05T11:03:56;4.90;99.90
1205;DHT22;592;48.764;9.174;2023-03-05T11:06:29;4.80;99.90
1205;DHT22;592;48.764;9.174;2023-03-05T11:09:19;4.80;99.90
1205;DHT22;592;48.764;9.174;2023-03-05T11:12:13;4.70;99.90
1205;DHT22;592;48.764;9.174;2023-03-05T11:15:02;4.80;99.90
1205;DHT22;592;48.764;9.174;2023-03-05T11:17:36;4.80;99.90
1205;DHT22;592;48.764;9.174;2023-03-05T11:20:27;4.70;99.90
1205;DHT22;592;48.764;9.174;2023-03-05T11:28:40;4.70;99.90
1205;DHT22;592;48.764;9.174;2023-03-05T11:31:25;4.70;99.90
1205;DHT22;592;48.764;9.174;2023-03-05T11:42:01;4.30;99.90
1205;DHT22;592;48.764;9.174;2023-03-05T11:44:34;4.30;99.90
1205;DHT22;592;48.764;9.174;2023-03-05T11:47:03;4.20;99.90
1205;DHT22;592;48.764;9.174;2023-03-05T11:49:37;4.10;99.90
1205;DHT22;592;48.764;9.174;2023-03-05T11:52:11;4.10;99.90
1205;DHT22;592;48.764;9.174;2023-03-05T11:54:53;4.10;99.90
1205;DHT22;592;48.764;9.174;2023-03-05T11:57:22;4.10;99.90
1205;DHT22;592;48.764;9.174;2023-03-05T11:59:52;4.20;99.90
1205;DHT22;592;48.764;9.174;2023-03-05T12:02:22;4.30;99.90
1205;DHT22;592;48.764;9.174;2023-03-05T12:04:50;4.30;99.90
1205;DHT22;592;48.764;9.174;2023-03-05T12:07:19;4.30;99.90
1205;DHT22;592;48.764;9.174;2023-03-05T12:09:49;4.40;99.90
1205;DHT22;592;48.764;9.174;2023-03-05T12:12:27;4.40;99.90
1205;DHT22;592;48.764;9.174;2023-03-05T12:15:13;4.30;99.90
1205;DHT22;592;48.764;9.174;2023-03-05T12:17:49;4.40;99.90
1205;DHT22;592;48.764;9.174;2023-03-05T12:20:29;4.50;99.90
1205;DHT22;592;48.764;9.174;2023-03-05T12:23:00;4.50;99.90
1205;DHT22;592;48.764;9.174;2023-03-05T12:25:31;4.60;99.90
1205;DHT22;592;48.764;9.174;2023-03-05T12:27:58;4.60;99.90
1205;DHT22;592;48.764;9.174;2023-03-05T12:30:57;4.40;99.90
1205;DHT22;592;48.764;9.174;2023-03-05T12:33:35;4.30;99.90
1205;DHT22;592;48.764;9.174;2023-03-05T12:42:39;4.40;99.90
1205;DHT22;592;48.764;9.174;2023-03-05T12:45:26;4.40;99.90
1205;DHT22;592;48.764;9.174;2023-03-05T12:51:29;4.50;99.90
1205;DHT22;592;48.764;9.174;2023-03-05T12:53:56;4.50;99.90
1205;DHT22;592;48.764;9.174;2023-03-05T12:56:26;4.50;99.90
1205;DHT22;592;48.764;9.174;2023-03-05T12:58:57;4.40;99.90
1205;DHT22;592;48.764;9.174;2023-03-05T13:01:35;4.40;99.90
1205;DHT22;592;48.764;9.174;2023-03-05T13:04:13;4.50;99.90
1205;DHT22;592;48.764;9.174;2023-03-05T13:06:42;4.50;99.90
1205;DHT22;592;48.764;9.174;2023-03-05T13:09:15;4.50;99.90
1205;DHT22;592;48.764;9.174;2023-03-05T13:11:45;4.60;99.90
1205;DHT22;592;48.764;9.174;2023-03-05T13:14:29;4.60;99.90
1205;DHT22;592;48.764;9.174;2023-03-05T13:16:56;4.70;99.90
1205;DHT22;592;48.764;9.174;2023-03-05T13:19:23;4.70;99.90
1205;DHT22;592;48.764;9.174;2023-03-05T13:21:58;4.70;99.90
1205;DHT22;592;48.764;9.174;2023-03-05T13:24:25;4.70;99.90
1205;DHT22;592;48.764;9.174;2023-03-05T13:26:51;4.80;99.90
1205;DHT22;592;48.764;9.174;2023-03-05T13:29:18;4.80;99.90
1205;DHT22;592;48.764;9.174;2023-03-05T13:31:48;4.80;99.90
1205;DHT22;592;48.764;9.174;2023-03-05T13:34:19;4.90;99.90
1205;DHT22;592;48.764;9.174;2023-03-05T13:36:51;4.80;99.90
1205;DHT22;592;48.764;9.174;2023-03-05T13:39:24;4.80;99.90
1205;DHT22;592;48.764;9.174;2023-03-05T13:41:57;4.80;99.90
1205;DHT22;592;48.764;9.174;2023-03-05T13:44:24;4.80;99.90
1205;DHT22;592;48.764;9.174;2023-03-05T13:46:50;4.90;99.90
1205;DHT22;592;48.764;9.174;2023-03-05T13:49:20;4.80;99.90
1205;DHT22;592;48.764;9.174;2023-03-05T13:51:49;4.80;99.90
1205;DHT22;592;48.764;9.174;2023-03-05T13:54:16;4.80;99.90
1205;DHT22;592;48.764;9.174;2023-03-05T13:56:56;5.00;99.90
1205;DHT22;592;48.764;9.174;2023-03-05T13:59:24;4.90;99.90
1205;DHT22;592;48.764;9.174;2023-03-05T14:01:53;4.90;99.90
1205;DHT22;592;48.764;9.174;2023-03-05T14:04:22;4.90;99.90
1205;DHT22;592;48.764;9.174;2023-03-05T14:06:53;4.70;99.90
1205;DHT22;592;48.764;9.174;2023-03-05T14:09:22;4.50;99.90
1205;DHT22;592;48.764;9.174;2023-03-05T14:11:56;4.40;99.90
1205;DHT22;592;48.764;9.174;2023-03-05T14:14:25;4.50;99.90
1205;DHT22;592;48.764;9.174;2023-03-05T14:16:52;4.60;99.90
1205;DHT22;592;48.764;9.174;2023-03-05T14:19:34;4.60;99.90
1205;DHT22;592;48.764;9.174;2023-03-05T14:22:03;4.60;99.90
1205;DHT22;592;48.764;9.174;2023-03-05T14:24:30;4.60;99.90
1205;DHT22;592;48.764;9.174;2023-03-05T14:27:00;4.60;99.90
1205;DHT22;592;48.764;9.174;2023-03-05T14:29:30;4.70;99.90
1205;DHT22;592;48.764;9.174;2023-03-05T14:31:59;4.70;99.90
1205;DHT22;592;48.764;9.174;2023-03-05T14:34:32;4.80;99.90
1205;DHT22;592;48.764;9.174;2023-03-05T14:37:04;4.80;99.90
1205;DHT22;592;48.764;9.174;2023-03-05T14:39:39;4.80;99.90
1205;DHT22;592;48.764;9.174;2023-03-05T14:42:32;4.70;99.90
1205;DHT22;592;48.764;9.174;2023-03-05T14:45:08;4.60;99.90
1205;DHT22;592;48.764;9.174;2023-03-05T14:47:35;4.70;99.90
1205;DHT22;592;48.764;9.174;2023-03-05T14:50:03;4.60;99.90
1205;DHT22;592;48.764;9.174;2023-03-05T14:52:30;4.50;99.90
1205;DHT22;592;48.764;9.174;2023-03-05T14:54:57;4.60;99.90
1205;DHT22;592;48.764;9.174;2023-03-05T14:57:26;4.60;99.90
1205;DHT22;592;48.764;9.174;2023-03-05T14:59:54;4.60;99.90
1205;DHT22;592;48.764;9.174;2023-03-05T15:02:22;4.50;99.90
1205;DHT22;592;48.764;9.174;2023-03-05T15:04:49;4.50;99.90
1205;DHT22;592;48.764;9.174;2023-03-05T15:07:18;4.50;99.90
1205;DHT22;592;48.764;9.174;2023-03-05T15:09:46;4.30;99.90
1205;DHT22;592;48.764;9.174;2023-03-05T15:12:14;4.20;99.90
1205;DHT22;592;48.764;9.174;2023-03-05T15:14:41;4.30;99.90
1205;DHT22;592;48.764;9.174;2023-03-05T15:17:16;4.40;99.90
1205;DHT22;592;48.764;9.174;2023-03-05T15:19:44;4.30;99.90
1205;DHT22;592;48.764;9.174;2023-03-05T15:22:12;4.20;99.90
1205;DHT22;592;48.764;9.174;2023-03-05T15:24:39;4.30;99.90
1205;DHT22;592;48.764;9.174;2023-03-05T15:27:06;4.30;99.90
1205;DHT22;592;48.764;9.174;2023-03-05T15:29:33;4.30;99.90
1205;DHT22;592;48.764;9.174;2023-03-05T15:32:00;4.30;99.90
1205;DHT22;592;48.764;9.174;2023-03-05T15:34:30;4.40;99.90
1205;DHT22;592;48.764;9.174;2023-03-05T15:36:58;4.40;99.90
1205;DHT22;592;48.764;9.174;2023-03-05T15:39:24;4.40;99.90
1205;DHT22;592;48.764;9.174;2023-03-05T15:41:51;4.40;99.90
1205;DHT22;592;48.764;9.174;2023-03-05T15:44:19;4.20;99.90
1205;DHT22;592;48.764;9.174;2023-03-05T15:46:46;4.20;99.90
1205;DHT22;592;48.764;9.174;2023-03-05T15:49:13;4.10;99.90
1205;DHT22;592;48.764;9.174;2023-03-05T15:51:41;4.20;99.90
1205;DHT22;592;48.764;9.174;2023-03-05T15:54:08;4.20;99.90
1205;DHT22;592;48.764;9.174;2023-03-05T15:56:35;4.20;99.90
1205;DHT22;592;48.764;9.174;2023-03-05T15:59:02;4.20;99.90
1205;DHT22;592;48.764;9.174;2023-03-05T16:01:29;4.30;99.90
1205;DHT22;592;48.764;9.174;2023-03-05T16:03:56;4.20;99.90
1205;DHT22;592;48.764;9.174;2023-03-05T16:06:23;4.20;99.90
1205;DHT22;592;48.764;9.174;2023-03-05T16:08:54;4.10;99.90
1205;DHT22;592;48.764;9.174;2023-03-05T16:11:24;4.10;99.90
1205;DHT22;592;48.764;9.174;2023-03-05T16:13:51;4.10;99.90
1205;DHT22;592;48.764;9.174;2023-03-05T16:16:18;4.10;99.90
1205;DHT22;592;48.764;9.174;2023-03-05T16:18:47;4.10;99.90
1205;DHT22;592;48.764;9.174;2023-03-05T16:21:13;4.20;99.90
1205;DHT22;592;48.764;9.174;2023-03-05T16:23:40;4.10;99.90
1205;DHT22;592;48.764;9.174;2023-03-05T16:26:08;4.20;99.90
1205;DHT22;592;48.764;9.174;2023-03-05T16:28:35;4.10;99.90
1205;DHT22;592;48.764;9.174;2023-03-05T16:31:02;4.10;99.90
1205;DHT22;592;48.764;9.174;2023-03-05T16:33:29;4.00;99.90
1205;DHT22;592;48.764;9.174;2023-03-05T16:36:19;3.90;99.90
1205;DHT22;592;48.764;9.174;2023-03-05T16:38:46;4.00;99.90
1205;DHT22;592;48.764;9.174;2023-03-05T16:41:15;3.90;99.90
1205;DHT22;592;48.764;9.174;2023-03-05T16:43:42;3.90;99.90
1205;DHT22;592;48.764;9.174;2023-03-05T16:46:09;3.90;99.90
1205;DHT22;592;48.764;9.174;2023-03-05T16:48:36;3.90;99.90
1205;DHT22;592;48.764;9.174;2023-03-05T16:51:04;3.90;99.90
1205;DHT22;592;48.764;9.174;2023-03-05T16:53:31;3.90;99.90
1205;DHT22;592;48.764;9.174;2023-03-05T16:55:58;4.00;99.90
1205;DHT22;592;48.764;9.174;2023-03-05T16:58:28;4.00;99.90
1205;DHT22;592;48.764;9.174;2023-03-05T17:00:55;3.90;99.90
1205;DHT22;592;48.764;9.174;2023-03-05T17:03:22;4.00;99.90
1205;DHT22;592;48.764;9.174;2023-03-05T17:05:49;4.00;99.90
1205;DHT22;592;48.764;9.174;2023-03-05T17:08:15;3.90;99.90
1205;DHT22;592;48.764;9.174;2023-03-05T17:10:42;3.90;99.90
1205;DHT22;592;48.764;9.174;2023-03-05T17:13:09;4.00;99.90
1205;DHT22;592;48.764;9.174;2023-03-05T17:15:37;4.00;99.90
1205;DHT22;592;48.764;9.174;2023-03-05T17:18:04;4.00;99.90
1205;DHT22;592;48.764;9.174;2023-03-05T17:20:31;4.10;99.90
1205;DHT22;592;48.764;9.174;2023-03-05T17:23:00;4.10;99.90
1205;DHT22;592;48.764;9.174;2023-03-05T17:25:27;4.10;99.90
1205;DHT22;592;48.764;9.174;2023-03-05T17:27:53;4.00;99.90
1205;DHT22;592;48.764;9.174;2023-03-05T17:30:20;3.90;99.90
1205;DHT22;592;48.764;9.174;2023-03-05T17:32:51;4.00;99.90
1205;DHT22;592;48.764;9.174;2023-03-05T17:35:18;4.00;99.90
1205;DHT22;592;48.764;9.174;2023-03-05T17:37:46;4.10;99.90
1205;DHT22;592;48.764;9.174;2023-03-05T17:40:13;4.10;99.90
1205;DHT22;592;48.764;9.174;2023-03-05T17:42:41;4.10;99.90
1205;DHT22;592;48.764;9.174;2023-03-05T17:45:08;4.10;99.90
1205;DHT22;592;48.764;9.174;2023-03-05T17:47:34;4.20;99.90